Time;durP1;ratioP1;P1;durP2;ratioP2;P2;SDS_P1;SDS_P2;PMS_P1;PMS_P2;Temp;Humidity;BMP_temperature;BMP_pressure;BME280_temperature;BME280_humidity;BME280_pressure;Samples;Min_cycle;Max_cycle;Signal;HPM_P1;HPM_P2
2020/01/16 00:00:35;;;;;;;3.6;3;;;;;;;6.53;70.1084;968.9105;;;;
2020/01/16 00:02:59;;;;;;;4.9;3.4;;;;;;;6.5;70.49023;968.9146;;;;
2020/01/16 00:05:24;;;;;;;4.8;3.1;;;;;;;6.51;70.75488;968.9781;;;;
2020/01/16 00:07:49;;;;;;;4.3;3.1;;;;;;;6.67;70.1543;968.9171;;;;
2020/01/16 00:10:14;;;;;;;5.7;3;;;;;;;6.7;70.0332;968.9186;;;;
2020/01/16 00:12:40;;;;;;;4.9;3.2;;;;;;;6.66;70.10645;969.0122;;;;
2020/01/16 00:15:05;;;;;;;4.9;3;;;;;;;6.66;70.55273;969.0406;;;;
2020/01/16 00:17:30;;;;;;;4.9;3;;;;;;;6.67;70.62109;969.0231;;;;
2020/01/16 00:19:55;;;;;;;5.1;3.4;;;;;;;6.64;70.54785;968.9716;;;;
2020/01/16 00:22:20;;;;;;;5.8;3.3;;;;;;;6.68;71.11426;969.0142;;;;
2020/01/16 00:24:46;;;;;;;3.9;2.9;;;;;;;6.85;70.45801;969.1214;;;;
2020/01/16 00:27:11;;;;;;;5.8;3.1;;;;;;;6.81;70.54199;969.0908;;;;
2020/01/16 00:29:36;;;;;;;4.8;2.8;;;;;;;6.81;70.62305;969.0611;;;;
2020/01/16 00:32:02;;;;;;;5.4;3;;;;;;;6.91;70.39941;969.0709;;;;
2020/01/16 00:34:27;;;;;;;3.9;2.9;;;;;;;7.02;70.22363;969.0491;;;;
2020/01/16 00:36:52;;;;;;;5.9;3;;;;;;;7.03;70.11035;969.0731;;;;
2020/01/16 00:39:17;;;;;;;4.8;3;;;;;;;6.94;70.2666;969.109;;;;
2020/01/16 00:41:42;;;;;;;4.6;2.8;;;;;;;7.02;69.89258;969.1296;;;;
2020/01/16 00:44:08;;;;;;;3.5;2.5;;;;;;;6.94;70.78027;969.157;;;;
2020/01/16 00:46:33;;;;;;;3.9;2.8;;;;;;;6.99;70.42383;969.1564;;;;
2020/01/16 00:48:58;;;;;;;4.2;2.6;;;;;;;7;70.33301;969.1696;;;;
2020/01/16 00:51:23;;;;;;;5.2;2.8;;;;;;;7.04;70.2832;969.1956;;;;
2020/01/16 00:53:48;;;;;;;4.7;2.5;;;;;;;7.15;69.66113;969.2194;;;;
2020/01/16 00:56:13;;;;;;;4.2;2.5;;;;;;;7.13;69.84082;969.2637;;;;
2020/01/16 00:58:38;;;;;;;4.3;2.3;;;;;;;7.12;69.56543;969.2813;;;;
2020/01/16 01:01:04;;;;;;;4.4;2.7;;;;;;;7.19;69.56738;969.3315;;;;
2020/01/16 01:03:29;;;;;;;4.3;2.2;;;;;;;7.33;69.26758;969.3844;;;;
2020/01/16 01:05:54;;;;;;;4.3;2.9;;;;;;;7.3;69.58496;969.3978;;;;
2020/01/16 01:08:19;;;;;;;3.6;2.4;;;;;;;7.46;68.76367;969.3773;;;;
2020/01/16 01:10:44;;;;;;;3.2;2.3;;;;;;;7.49;69.22559;969.3992;;;;
2020/01/16 01:13:09;;;;;;;2.9;1.9;;;;;;;7.48;68.95117;969.3777;;;;
2020/01/16 01:15:35;;;;;;;3.8;2.3;;;;;;;7.42;69.56934;969.4416;;;;
2020/01/16 01:18:00;;;;;;;2.8;1.8;;;;;;;7.56;68.32227;969.442;;;;
2020/01/16 01:20:25;;;;;;;3.9;2.2;;;;;;;7.6;68.88965;969.4928;;;;
2020/01/16 01:22:50;;;;;;;3.2;2;;;;;;;7.52;68.48633;969.5318;;;;
2020/01/16 01:25:16;;;;;;;2.8;1.8;;;;;;;7.65;68.28125;969.5349;;;;
2020/01/16 01:27:40;;;;;;;3.2;1.8;;;;;;;7.66;68.64648;969.5969;;;;
2020/01/16 01:30:06;;;;;;;3.5;2.1;;;;;;;7.7;68.36719;969.592;;;;
2020/01/16 01:32:33;;;;;;;3.5;1.8;;;;;;;7.7;68.17285;969.5945;;;;
2020/01/16 01:34:57;;;;;;;4.1;2.1;;;;;;;7.71;68.01563;969.6825;;;;
2020/01/16 01:37:32;;;;;;;3.8;2.2;;;;;;;7.73;68.25781;969.6917;;;;
2020/01/16 01:39:55;;;;;;;3.4;2.3;;;;;;;7.65;68.31348;969.679;;;;
2020/01/16 01:42:23;;;;;;;3.5;2.2;;;;;;;7.72;68.88574;969.7483;;;;
2020/01/16 01:44:41;;;;;;;2.5;2;;;;;;;7.85;68.19824;969.6892;;;;
2020/01/16 01:47:07;;;;;;;2.9;2;;;;;;;7.83;68.11523;969.7199;;;;
2020/01/16 01:49:28;;;;;;;3.3;2;;;;;;;7.89;67.83789;969.669;;;;
2020/01/16 01:51:53;;;;;;;3.3;2.1;;;;;;;7.84;68.16211;969.6743;;;;
2020/01/16 01:54:19;;;;;;;2.9;1.9;;;;;;;7.86;67.86816;969.7067;;;;
2020/01/16 01:56:44;;;;;;;3;2;;;;;;;7.86;68.35938;969.7748;;;;
2020/01/16 01:59:10;;;;;;;2.4;1.8;;;;;;;7.87;68.33789;969.7349;;;;
2020/01/16 02:01:35;;;;;;;2.8;1.8;;;;;;;7.86;68.23242;969.6968;;;;
2020/01/16 02:04:00;;;;;;;2.7;1.8;;;;;;;7.84;68.35645;969.7278;;;;
2020/01/16 02:06:25;;;;;;;3.2;2;;;;;;;7.88;68.11035;969.8033;;;;
2020/01/16 02:08:50;;;;;;;2.6;1.9;;;;;;;7.84;68.66406;969.7951;;;;
2020/01/16 02:11:15;;;;;;;3.1;1.9;;;;;;;7.84;68.34375;969.7951;;;;
2020/01/16 02:13:40;;;;;;;2.9;1.8;;;;;;;7.91;68.14941;969.7422;;;;
2020/01/16 02:16:06;;;;;;;3.3;2;;;;;;;7.88;68.08789;969.8374;;;;
2020/01/16 02:18:31;;;;;;;3.1;1.9;;;;;;;7.91;68.77832;969.8599;;;;
2020/01/16 02:20:56;;;;;;;3.3;1.8;;;;;;;7.86;68.72559;969.8884;;;;
2020/01/16 02:23:22;;;;;;;2.7;1.7;;;;;;;7.92;67.4541;969.8424;;;;
2020/01/16 02:25:47;;;;;;;3;1.8;;;;;;;8.02;67.27441;969.8552;;;;
2020/01/16 02:28:13;;;;;;;2.2;1.5;;;;;;;7.98;67.09668;969.8575;;;;
2020/01/16 02:30:38;;;;;;;2.7;1.6;;;;;;;8.01;67.12402;969.8619;;;;
2020/01/16 02:33:03;;;;;;;3.3;1.9;;;;;;;8.11;66.38574;969.861;;;;
2020/01/16 02:35:28;;;;;;;5;1.8;;;;;;;8.14;65.91992;969.8494;;;;
2020/01/16 02:37:53;;;;;;;2.7;1.7;;;;;;;8.15;66.05859;969.8407;;;;
2020/01/16 02:40:19;;;;;;;3;1.6;;;;;;;8.19;65.75586;969.84;;;;
2020/01/16 02:42:44;;;;;;;3.9;1.6;;;;;;;8.27;65.34375;969.856;;;;
2020/01/16 02:45:09;;;;;;;2.7;1.7;;;;;;;8.33;64.95313;969.8837;;;;
2020/01/16 02:47:34;;;;;;;2.7;1.6;;;;;;;8.3;64.99512;969.8914;;;;
2020/01/16 02:50:00;;;;;;;3.7;1.8;;;;;;;8.33;64.73535;969.8861;;;;
2020/01/16 02:52:25;;;;;;;2.7;1.5;;;;;;;8.41;64.73438;969.933;;;;
2020/01/16 02:54:50;;;;;;;3.2;1.7;;;;;;;8.39;64.61719;969.9564;;;;
2020/01/16 02:57:15;;;;;;;3.6;1.5;;;;;;;8.47;64.30859;969.9771;;;;
2020/01/16 02:59:41;;;;;;;3.4;1.6;;;;;;;8.47;64.28711;969.9716;;;;
2020/01/16 03:02:06;;;;;;;4.3;1.7;;;;;;;8.57;63.82129;970.0204;;;;
2020/01/16 03:04:31;;;;;;;2.5;1.5;;;;;;;8.53;63.99805;970.0594;;;;
2020/01/16 03:06:56;;;;;;;2.4;1.5;;;;;;;8.58;63.7998;970.0598;;;;
2020/01/16 03:09:22;;;;;;;1.9;1.3;;;;;;;8.54;64.0918;970.0672;;;;
2020/01/16 03:11:47;;;;;;;3.2;1.6;;;;;;;8.51;63.91504;970.1089;;;;
2020/01/16 03:14:13;;;;;;;4.3;1.7;;;;;;;8.54;64.8584;970.1191;;;;
2020/01/16 03:16:38;;;;;;;3;1.7;;;;;;;8.54;65.95801;970.2019;;;;
2020/01/16 03:19:03;;;;;;;3.6;1.4;;;;;;;8.52;66.21973;970.1808;;;;
2020/01/16 03:21:28;;;;;;;3;1.8;;;;;;;8.52;68.13184;970.183;;;;
2020/01/16 03:23:53;;;;;;;3.1;1.5;;;;;;;8.42;67.50879;970.2349;;;;
2020/01/16 03:26:19;;;;;;;2.7;1.6;;;;;;;8.47;68.39941;970.2599;;;;
2020/01/16 03:28:44;;;;;;;2.5;1.5;;;;;;;8.38;68.30469;970.2528;;;;
2020/01/16 03:31:09;;;;;;;2.2;1.5;;;;;;;8.37;68.38184;970.3141;;;;
2020/01/16 03:33:35;;;;;;;2.3;1.6;;;;;;;8.48;69.00586;970.2447;;;;
2020/01/16 03:36:00;;;;;;;2.5;1.6;;;;;;;8.5;69.35449;970.2628;;;;
2020/01/16 03:38:26;;;;;;;3;1.6;;;;;;;8.38;69.36816;970.2717;;;;
2020/01/16 03:40:51;;;;;;;3;1.6;;;;;;;8.37;69.97559;970.259;;;;
2020/01/16 03:43:17;;;;;;;4.2;1.7;;;;;;;8.35;69.57031;970.3103;;;;
2020/01/16 03:45:42;;;;;;;3.5;1.5;;;;;;;8.32;68.66113;970.2342;;;;
2020/01/16 03:48:08;;;;;;;2.4;1.5;;;;;;;8.37;68.80762;970.281;;;;
2020/01/16 03:50:41;;;;;;;2.4;1.5;;;;;;;8.34;69.89063;970.2861;;;;
2020/01/16 03:53:07;;;;;;;2.5;1.6;;;;;;;8.35;69.52441;970.3192;;;;
2020/01/16 03:55:32;;;;;;;3;1.8;;;;;;;8.35;69.21484;970.3029;;;;
2020/01/16 04:05:14;;;;;;;2.4;1.6;;;;;;;8.33;70.88379;970.2443;;;;
2020/01/16 04:07:17;;;;;;;2.4;1.6;;;;;;;8.54;69.09668;970.2758;;;;
2020/01/16 04:09:42;;;;;;;2.7;1.7;;;;;;;8.4;70.82715;970.2734;;;;
2020/01/16 04:12:07;;;;;;;3.5;1.5;;;;;;;8.37;71.15332;970.2897;;;;
2020/01/16 04:14:32;;;;;;;3.1;1.6;;;;;;;8.31;71.3291;970.336;;;;
2020/01/16 04:16:57;;;;;;;3.5;1.7;;;;;;;8.23;70.125;970.2977;;;;
2020/01/16 04:19:23;;;;;;;3.4;1.6;;;;;;;8.23;69.43652;970.3056;;;;
2020/01/16 04:21:48;;;;;;;2.8;1.6;;;;;;;8.27;71.04492;970.339;;;;
2020/01/16 04:24:13;;;;;;;2.7;1.7;;;;;;;8.33;70.64355;970.3686;;;;
2020/01/16 04:26:38;;;;;;;2.6;1.6;;;;;;;8.26;71.99512;970.3778;;;;
2020/01/16 04:29:03;;;;;;;2.7;1.7;;;;;;;8.25;72.18652;970.3706;;;;
2020/01/16 04:31:28;;;;;;;3.4;1.9;;;;;;;8.14;73.94238;970.3787;;;;
2020/01/16 04:33:53;;;;;;;4.2;2.2;;;;;;;8.05;74.94629;970.3488;;;;
2020/01/16 04:36:18;;;;;;;3;2.3;;;;;;;7.85;76.52441;970.3596;;;;
2020/01/16 04:38:43;;;;;;;4.2;2.6;;;;;;;7.89;74.97656;970.3233;;;;
2020/01/16 04:41:08;;;;;;;3.6;2.4;;;;;;;7.77;75.46875;970.3734;;;;
2020/01/16 04:43:33;;;;;;;3.4;2.2;;;;;;;7.75;75.83008;970.4899;;;;
2020/01/16 04:45:58;;;;;;;5.1;2.5;;;;;;;7.67;76.53613;970.5051;;;;
2020/01/16 04:48:24;;;;;;;4.4;2.4;;;;;;;7.72;77.23145;970.5386;;;;
2020/01/16 04:50:49;;;;;;;3.2;2.3;;;;;;;7.77;76.01758;970.5391;;;;
2020/01/16 04:53:14;;;;;;;4.6;2.7;;;;;;;7.82;75.78711;970.5375;;;;
2020/01/16 04:55:39;;;;;;;3.7;2.2;;;;;;;7.88;75.13379;970.5604;;;;
2020/01/16 04:58:04;;;;;;;3.1;2.3;;;;;;;7.87;75.875;970.5779;;;;
2020/01/16 05:00:29;;;;;;;3.5;2.4;;;;;;;7.84;76.19043;970.5823;;;;
2020/01/16 05:02:55;;;;;;;3;2;;;;;;;7.8;75.85156;970.5608;;;;
2020/01/16 05:05:20;;;;;;;4.3;2.7;;;;;;;7.77;76.95605;970.5527;;;;
2020/01/16 05:07:45;;;;;;;4.1;2.5;;;;;;;7.71;76.8877;970.5458;;;;
2020/01/16 05:10:10;;;;;;;3.7;2.5;;;;;;;7.69;76.42676;970.589;;;;
2020/01/16 05:12:35;;;;;;;4.4;2.7;;;;;;;7.69;76.7334;970.6022;;;;
2020/01/16 05:15:00;;;;;;;4;2.6;;;;;;;7.69;77.26172;970.653;;;;
2020/01/16 05:17:25;;;;;;;4.3;2.7;;;;;;;7.61;77.23535;970.6353;;;;
2020/01/16 05:19:50;;;;;;;3.5;2.7;;;;;;;7.59;77.25488;970.6365;;;;
2020/01/16 05:22:15;;;;;;;3.2;2.5;;;;;;;7.64;76.46289;970.6708;;;;
2020/01/16 05:24:40;;;;;;;4.4;2.6;;;;;;;7.7;76.34668;970.6703;;;;
2020/01/16 05:27:05;;;;;;;3.8;2.8;;;;;;;7.56;76.87109;970.6772;;;;
2020/01/16 05:29:30;;;;;;;4.4;2.9;;;;;;;7.58;76.72754;970.6817;;;;
2020/01/16 05:31:55;;;;;;;4.3;2.9;;;;;;;7.64;76.70313;970.6611;;;;
2020/01/16 05:34:21;;;;;;;4.1;3;;;;;;;7.66;76.07715;970.6815;;;;
2020/01/16 05:36:46;;;;;;;4.7;3;;;;;;;7.64;77.57129;970.6994;;;;
2020/01/16 05:39:11;;;;;;;4.6;2.9;;;;;;;7.61;76.68652;970.748;;;;
2020/01/16 05:41:36;;;;;;;4.2;2.8;;;;;;;7.64;76.1084;970.7924;;;;
2020/01/16 05:44:01;;;;;;;5.2;2.9;;;;;;;7.65;76.08887;970.8166;;;;
2020/01/16 05:46:26;;;;;;;6.8;3.4;;;;;;;7.7;76.81543;970.8398;;;;
2020/01/16 05:48:51;;;;;;;5.5;3.4;;;;;;;7.6;77.40527;970.8247;;;;
2020/01/16 05:51:16;;;;;;;5.1;3.2;;;;;;;7.6;77.28906;970.8822;;;;
2020/01/16 05:53:43;;;;;;;5;3.4;;;;;;;7.61;76.62988;970.9021;;;;
2020/01/16 05:56:13;;;;;;;5.4;3.8;;;;;;;7.69;75.93555;970.8792;;;;
2020/01/16 05:58:40;;;;;;;5.3;3.7;;;;;;;7.63;76.46094;970.8967;;;;
2020/01/16 06:06:11;;;;;;;5.8;3.3;;;;;;;7.55;77.57813;970.9163;;;;
2020/01/16 06:08:12;;;;;;;4.6;3.1;;;;;;;7.58;77.44629;970.9088;;;;
2020/01/16 06:10:37;;;;;;;4.4;2.6;;;;;;;7.63;76.20996;970.9178;;;;
2020/01/16 06:13:02;;;;;;;4.8;3.1;;;;;;;7.65;76.80762;970.9065;;;;
2020/01/16 06:15:27;;;;;;;4.1;2.8;;;;;;;7.72;75.49414;970.899;;;;
2020/01/16 06:17:52;;;;;;;4.6;2.8;;;;;;;7.73;75.71289;970.9509;;;;
2020/01/16 06:20:17;;;;;;;4.3;3;;;;;;;7.69;76.64355;970.9353;;;;
2020/01/16 06:22:43;;;;;;;5;2.9;;;;;;;7.67;76.47949;970.9562;;;;
2020/01/16 06:25:32;;;;;;;4.3;2.8;;;;;;;7.6;76.66211;970.9967;;;;
2020/01/16 06:27:57;;;;;;;4.3;2.9;;;;;;;7.6;77.19922;971.0414;;;;
2020/01/16 06:30:23;;;;;;;3.9;2.9;;;;;;;7.65;76.51172;971.0388;;;;
2020/01/16 06:32:48;;;;;;;4.7;2.6;;;;;;;7.63;76.5752;971.0111;;;;
2020/01/16 06:35:13;;;;;;;5.7;3;;;;;;;7.72;76.88867;971.0771;;;;
2020/01/16 06:37:39;;;;;;;5;3;;;;;;;7.59;78.08984;971.0731;;;;
2020/01/16 06:40:04;;;;;;;6.1;3.3;;;;;;;7.58;78.32813;971.0881;;;;
2020/01/16 06:42:29;;;;;;;3.9;2.8;;;;;;;7.68;77.68066;971.07;;;;
2020/01/16 06:44:54;;;;;;;6.6;3.5;;;;;;;7.51;79.1377;971.0531;;;;
2020/01/16 06:47:20;;;;;;;6.7;3.4;;;;;;;7.49;78.24121;971.0729;;;;
2020/01/16 06:49:45;;;;;;;5.2;3.1;;;;;;;7.53;78.62695;971.0765;;;;
2020/01/16 06:52:10;;;;;;;5.9;3.4;;;;;;;7.62;77.09961;971.1191;;;;
2020/01/16 06:54:35;;;;;;;7.1;3.9;;;;;;;7.65;77.04785;971.1415;;;;
2020/01/16 06:57:00;;;;;;;7.1;3.7;;;;;;;7.63;77.86719;971.179;;;;
2020/01/16 06:59:26;;;;;;;7.7;4;;;;;;;7.64;77.78906;971.1738;;;;
2020/01/16 07:01:51;;;;;;;7.3;4.3;;;;;;;7.67;77.61133;971.1696;;;;
2020/01/16 07:04:17;;;;;;;6.9;4.2;;;;;;;7.7;77.11426;971.2034;;;;
2020/01/16 07:06:42;;;;;;;7.3;4.5;;;;;;;7.69;77.1123;971.2202;;;;
2020/01/16 07:09:07;;;;;;;7.2;4.5;;;;;;;7.67;76.90234;971.198;;;;
2020/01/16 07:11:33;;;;;;;6;4.3;;;;;;;7.64;77.88086;971.2621;;;;
2020/01/16 07:13:58;;;;;;;7.8;4.9;;;;;;;7.65;77.55078;971.2342;;;;
2020/01/16 07:16:23;;;;;;;6.8;4.6;;;;;;;7.6;77.8623;971.2092;;;;
2020/01/16 07:18:49;;;;;;;8;4.7;;;;;;;7.48;78.75391;971.2275;;;;
2020/01/16 07:21:14;;;;;;;7.1;4.4;;;;;;;7.47;78.53516;971.1969;;;;
2020/01/16 07:23:39;;;;;;;6.7;4.2;;;;;;;7.6;77.85059;971.2068;;;;
2020/01/16 07:26:04;;;;;;;7.7;4.3;;;;;;;7.65;78.06445;971.2422;;;;
2020/01/16 07:28:29;;;;;;;6.9;4.3;;;;;;;7.69;77.52441;971.2444;;;;
2020/01/16 07:30:54;;;;;;;6.7;4;;;;;;;7.77;77.05859;971.2164;;;;
2020/01/16 07:33:19;;;;;;;5.6;3.9;;;;;;;7.8;77.37207;971.2271;;;;
2020/01/16 07:35:45;;;;;;;6;4.2;;;;;;;7.82;77.59473;971.2662;;;;
2020/01/16 07:38:10;;;;;;;5.5;3.9;;;;;;;7.83;77.125;971.2583;;;;
2020/01/16 07:40:35;;;;;;;5.5;3.8;;;;;;;7.84;77.97461;971.2809;;;;
2020/01/16 07:43:00;;;;;;;6.6;4.1;;;;;;;7.78;77.59766;971.3204;;;;
2020/01/16 07:45:26;;;;;;;8.6;4.1;;;;;;;7.79;78.73145;971.3109;;;;
2020/01/16 07:47:51;;;;;;;4.9;3.3;;;;;;;7.92;76.77734;971.3666;;;;
2020/01/16 07:50:16;;;;;;;6.8;4.1;;;;;;;7.93;77.86328;971.4005;;;;
2020/01/16 07:52:41;;;;;;;7.5;3.9;;;;;;;7.87;78.32324;971.3912;;;;
2020/01/16 07:55:06;;;;;;;9.4;4.1;;;;;;;7.89;78.17773;971.3642;;;;
2020/01/16 07:57:32;;;;;;;7.8;3.9;;;;;;;7.9;77.00098;971.3334;;;;
2020/01/16 07:59:57;;;;;;;7.7;4;;;;;;;7.81;77.20215;971.3438;;;;
2020/01/16 08:02:23;;;;;;;9.7;4.3;;;;;;;7.88;77.21484;971.3476;;;;
2020/01/16 08:04:48;;;;;;;8.5;3.6;;;;;;;7.92;76.15918;971.366;;;;
2020/01/16 08:07:23;;;;;;;9.7;3.9;;;;;;;7.72;77.55176;971.4114;;;;
2020/01/16 08:14:28;;;;;;;6.6;3.3;;;;;;;7.56;76.77051;971.4675;;;;
2020/01/16 08:16:54;;;;;;;8.2;3.8;;;;;;;7.62;77.6582;971.4183;;;;
2020/01/16 08:19:19;;;;;;;10.5;4.2;;;;;;;7.52;77.69922;971.4308;;;;
2020/01/16 08:21:44;;;;;;;6.2;3.5;;;;;;;7.67;76.84473;971.4372;;;;
2020/01/16 08:24:09;;;;;;;6.8;3.7;;;;;;;7.64;77.82324;971.4623;;;;
2020/01/16 08:26:34;;;;;;;7.2;4.1;;;;;;;7.56;77.46582;971.4893;;;;
2020/01/16 08:28:59;;;;;;;6.2;3.9;;;;;;;7.66;77.58789;971.4468;;;;
2020/01/16 08:31:25;;;;;;;7.1;4.4;;;;;;;7.8;76.05664;971.462;;;;
2020/01/16 08:33:50;;;;;;;5.2;3.9;;;;;;;7.98;74.44141;971.4507;;;;
2020/01/16 08:36:15;;;;;;;9.8;4.6;;;;;;;7.89;77.74414;971.4319;;;;
2020/01/16 08:38:41;;;;;;;7;4.1;;;;;;;7.76;76.67969;971.4012;;;;
2020/01/16 08:41:07;;;;;;;6.7;3.7;;;;;;;7.73;77.71191;971.4384;;;;
2020/01/16 08:43:32;;;;;;;6.3;3.8;;;;;;;7.94;76.51758;971.4489;;;;
2020/01/16 08:45:57;;;;;;;5.4;3.5;;;;;;;8.08;74.02539;971.4533;;;;
2020/01/16 08:48:22;;;;;;;6.5;3.8;;;;;;;8.09;73.95801;971.4448;;;;
2020/01/16 08:50:48;;;;;;;8.2;3.8;;;;;;;8.18;74.95605;971.5284;;;;
2020/01/16 08:53:13;;;;;;;6.1;3.5;;;;;;;8.32;73.93945;971.4916;;;;
2020/01/16 08:55:39;;;;;;;7;3.3;;;;;;;8.4;73.60938;971.5016;;;;
2020/01/16 08:58:04;;;;;;;8.7;3.9;;;;;;;8.38;74.49805;971.5233;;;;
2020/01/16 09:00:29;;;;;;;6.3;3.2;;;;;;;8.37;74.05176;971.5559;;;;
2020/01/16 09:02:54;;;;;;;8.2;3.6;;;;;;;8.44;72.45898;971.5914;;;;
2020/01/16 09:05:20;;;;;;;7.7;4;;;;;;;8.5;74.86328;971.6015;;;;
2020/01/16 09:07:45;;;;;;;7.1;4;;;;;;;8.51;74.5;971.5851;;;;
2020/01/16 09:10:10;;;;;;;5.5;3.4;;;;;;;8.61;71.54785;971.6203;;;;
2020/01/16 09:12:36;;;;;;;7;3.7;;;;;;;8.67;72.4541;971.6487;;;;
2020/01/16 09:15:01;;;;;;;7.1;3.6;;;;;;;8.74;72.70508;971.5925;;;;
2020/01/16 09:17:28;;;;;;;7.9;3.8;;;;;;;8.77;73.63965;971.628;;;;
2020/01/16 09:19:52;;;;;;;5.9;3.3;;;;;;;8.86;70.91406;971.6318;;;;
2020/01/16 09:22:17;;;;;;;6.3;3.5;;;;;;;8.89;70.63281;971.6917;;;;
2020/01/16 09:24:42;;;;;;;6.4;3.4;;;;;;;8.98;71.04785;971.6868;;;;
2020/01/16 09:27:08;;;;;;;6.8;3.3;;;;;;;9;71.74023;971.6046;;;;
2020/01/16 09:29:33;;;;;;;6.3;3.2;;;;;;;8.96;73.55566;971.6223;;;;
2020/01/16 09:31:58;;;;;;;6.7;3.1;;;;;;;9.07;69.1709;971.6307;;;;
2020/01/16 09:34:23;;;;;;;7.9;3.3;;;;;;;9.17;70.19629;971.6261;;;;
2020/01/16 09:36:48;;;;;;;6.1;3.1;;;;;;;9.21;69.59473;971.614;;;;
2020/01/16 09:39:14;;;;;;;6.7;3.9;;;;;;;9.35;68.86035;971.5778;;;;
2020/01/16 09:41:39;;;;;;;8.3;3.9;;;;;;;9.33;70.02637;971.5418;;;;
2020/01/16 09:44:05;;;;;;;8.9;3.9;;;;;;;9.37;68.17383;971.5634;;;;
2020/01/16 09:46:30;;;;;;;8.4;3.6;;;;;;;9.32;69.41699;971.5902;;;;
2020/01/16 09:48:56;;;;;;;10.5;4.1;;;;;;;9.43;67.61035;971.5652;;;;
2020/01/16 09:51:21;;;;;;;7.2;3.7;;;;;;;9.55;66.79004;971.6191;;;;
2020/01/16 09:53:46;;;;;;;7.9;3.4;;;;;;;9.7;66.83691;971.5499;;;;
2020/01/16 09:56:11;;;;;;;8.3;3.5;;;;;;;9.69;67.69531;971.5676;;;;
2020/01/16 09:58:37;;;;;;;11.5;4.2;;;;;;;9.71;66.73633;971.5599;;;;
2020/01/16 10:01:02;;;;;;;8;3.9;;;;;;;9.87;67.16211;971.5129;;;;
2020/01/16 10:03:27;;;;;;;9;4.4;;;;;;;9.85;67.97461;971.4581;;;;
2020/01/16 10:05:52;;;;;;;13.7;4.7;;;;;;;9.71;65.35645;971.4695;;;;
2020/01/16 10:08:23;;;;;;;8.3;3.9;;;;;;;9.83;65.74316;971.468;;;;
2020/01/16 10:10:42;;;;;;;14.9;4.3;;;;;;;9.74;65.58984;971.4763;;;;
2020/01/16 10:13:08;;;;;;;8.4;3.9;;;;;;;9.78;65.86133;971.4509;;;;
2020/01/16 10:15:39;;;;;;;7.5;3.2;;;;;;;9.91;64.71973;971.3929;;;;
2020/01/16 10:20:28;;;;;;;7.4;3.2;;;;;;;9.93;66.33301;971.4242;;;;
2020/01/16 10:22:49;;;;;;;11.3;3.7;;;;;;;9.69;65.59668;971.4306;;;;
2020/01/16 10:25:14;;;;;;;8;3.7;;;;;;;9.65;66.02441;971.3945;;;;
2020/01/16 10:27:39;;;;;;;8.2;3.7;;;;;;;9.6;66.20117;971.3401;;;;
2020/01/16 10:30:04;;;;;;;6.4;3.3;;;;;;;9.65;66.79395;971.3195;;;;
2020/01/16 10:32:29;;;;;;;7.7;3.5;;;;;;;9.57;66.98926;971.3093;;;;
2020/01/16 10:34:55;;;;;;;6.6;3.2;;;;;;;9.56;65.73535;971.2824;;;;
2020/01/16 10:37:20;;;;;;;7.2;3.9;;;;;;;9.63;64.25293;971.2637;;;;
2020/01/16 10:39:45;;;;;;;10.9;4.8;;;;;;;9.7;64.59668;971.1721;;;;
2020/01/16 10:42:11;;;;;;;12.5;5.1;;;;;;;9.54;65.51563;971.1864;;;;
2020/01/16 10:44:36;;;;;;;9.6;5.5;;;;;;;9.75;65.16797;971.175;;;;
2020/01/16 10:47:02;;;;;;;9.2;5.2;;;;;;;9.92;66.46777;971.175;;;;
2020/01/16 10:49:27;;;;;;;6.9;4.9;;;;;;;10.03;67.47266;971.1299;;;;
2020/01/16 10:51:53;;;;;;;9.2;5.4;;;;;;;10.08;66.64258;971.1161;;;;
2020/01/16 10:54:17;;;;;;;10.2;5.2;;;;;;;9.93;65.49414;971.0651;;;;
2020/01/16 10:56:42;;;;;;;9.2;5;;;;;;;9.96;65.68164;971.09;;;;
2020/01/16 10:59:08;;;;;;;14;5.5;;;;;;;10.24;65.68945;971.0519;;;;
2020/01/16 11:01:33;;;;;;;14.9;5.8;;;;;;;10.1;66.64453;970.9738;;;;
2020/01/16 11:03:58;;;;;;;11.7;5.5;;;;;;;10.08;65.28613;970.9428;;;;
2020/01/16 11:06:24;;;;;;;12.6;4.8;;;;;;;10.31;64.64258;970.9423;;;;
2020/01/16 11:08:49;;;;;;;11;4.3;;;;;;;10.39;64.98828;970.9138;;;;
2020/01/16 11:11:14;;;;;;;13.5;3.9;;;;;;;10.59;64.40723;970.8586;;;;
2020/01/16 11:13:40;;;;;;;8.5;4.1;;;;;;;10.58;64.44238;970.7963;;;;
2020/01/16 11:16:05;;;;;;;10.2;3.8;;;;;;;10.56;63.48242;970.8123;;;;
2020/01/16 11:18:31;;;;;;;8.6;3.7;;;;;;;10.68;62.72852;970.7356;;;;
2020/01/16 11:20:56;;;;;;;4.9;2.9;;;;;;;10.37;62.71875;970.7011;;;;
2020/01/16 11:23:21;;;;;;;6.3;3.3;;;;;;;10.38;63.18066;970.6667;;;;
2020/01/16 11:25:46;;;;;;;6.8;3.1;;;;;;;10.61;62.83496;970.5754;;;;
2020/01/16 11:28:11;;;;;;;6.4;3.1;;;;;;;10.55;61.92773;970.5758;;;;
2020/01/16 11:30:37;;;;;;;8;3.8;;;;;;;10.59;62.31445;970.5555;;;;
2020/01/16 11:33:01;;;;;;;5.5;3.4;;;;;;;10.73;61.20508;970.5244;;;;
2020/01/16 11:37:52;;;;;;;4.9;3.1;;;;;;;10.92;60.67871;970.4528;;;;
2020/01/16 11:42:43;;;;;;;6;3.4;;;;;;;10.54;61.55859;970.4174;;;;
2020/01/16 11:47:32;;;;;;;7.2;3.4;;;;;;;10.52;62.43066;970.4141;;;;
2020/01/16 11:52:23;;;;;;;4.7;2.7;;;;;;;10.5;62.64648;970.3386;;;;
2020/01/16 11:55:39;;;;;;;5.8;3.1;;;;;;;10.56;62.80371;970.3633;;;;
2020/01/16 11:57:13;;;;;;;6.4;2.9;;;;;;;10.48;62.46973;970.3914;;;;
2020/01/16 11:59:38;;;;;;;5.8;3;;;;;;;10.39;62.92871;970.3516;;;;
2020/01/16 12:02:11;;;;;;;5.8;3.2;;;;;;;10.49;62.81641;970.3624;;;;
2020/01/16 12:04:41;;;;;;;5.7;3.3;;;;;;;10.51;62.39453;970.3658;;;;
2020/01/16 12:06:58;;;;;;;7.6;3.4;;;;;;;10.27;64.40723;970.3831;;;;
2020/01/16 12:09:37;;;;;;;5.8;3.2;;;;;;;10.25;63.12793;970.3688;;;;
2020/01/16 12:11:45;;;;;;;6.5;3.2;;;;;;;10.24;63.7002;970.3186;;;;
2020/01/16 12:14:09;;;;;;;5.2;3.1;;;;;;;10.27;63.92383;970.2875;;;;
2020/01/16 12:21:27;;;;;;;5.5;3.2;;;;;;;10.21;63.50098;970.1555;;;;
2020/01/16 12:23:49;;;;;;;4.8;3.3;;;;;;;10.19;63.33691;970.074;;;;
2020/01/16 12:26:14;;;;;;;5.9;3.4;;;;;;;10.15;64.02051;970.0392;;;;
2020/01/16 12:28:40;;;;;;;6.1;3.6;;;;;;;10.13;63.81055;970.0327;;;;
2020/01/16 12:31:05;;;;;;;4.8;3.2;;;;;;;10.22;64.23828;969.9561;;;;
2020/01/16 12:33:30;;;;;;;4.4;3.2;;;;;;;10.27;63.5332;969.8551;;;;
2020/01/16 12:35:55;;;;;;;6.4;3.2;;;;;;;10.2;64.09766;969.8351;;;;
2020/01/16 12:38:20;;;;;;;6.1;3.7;;;;;;;10.26;63.93262;969.7798;;;;
2020/01/16 12:40:45;;;;;;;6.2;3.6;;;;;;;10.17;64.98828;969.7419;;;;
2020/01/16 12:43:15;;;;;;;5.9;3.5;;;;;;;10.15;65.57227;969.7198;;;;
2020/01/16 12:45:41;;;;;;;7.7;3.7;;;;;;;10.2;65.24609;969.6929;;;;
2020/01/16 12:48:06;;;;;;;7.2;3.8;;;;;;;10.18;65.2793;969.6331;;;;
2020/01/16 12:50:31;;;;;;;6.3;4;;;;;;;10.22;65.39941;969.5764;;;;
2020/01/16 12:52:56;;;;;;;7.4;4.5;;;;;;;10.22;65.62891;969.5383;;;;
2020/01/16 12:55:21;;;;;;;10;4.1;;;;;;;10.15;65.2041;969.5112;;;;
2020/01/16 12:57:46;;;;;;;6.7;4;;;;;;;10.16;65.34375;969.4903;;;;
2020/01/16 13:00:12;;;;;;;6;4;;;;;;;10.18;65.91016;969.4749;;;;
2020/01/16 13:02:37;;;;;;;6;3.7;;;;;;;10.15;65.62012;969.395;;;;
2020/01/16 13:05:03;;;;;;;7;4.2;;;;;;;10.18;65.54199;969.4211;;;;
2020/01/16 13:07:28;;;;;;;7.5;4;;;;;;;10.18;65.37109;969.392;;;;
2020/01/16 13:09:53;;;;;;;5.9;3.6;;;;;;;10.23;65.10059;969.3681;;;;
2020/01/16 13:12:19;;;;;;;7;3.6;;;;;;;10.3;64.92871;969.3045;;;;
2020/01/16 13:14:44;;;;;;;6.2;3.5;;;;;;;10.26;65.11816;969.2455;;;;
2020/01/16 13:17:09;;;;;;;5.8;3.4;;;;;;;10.26;65.03809;969.2845;;;;
2020/01/16 13:19:34;;;;;;;6.4;3.4;;;;;;;10.34;64.83203;969.2219;;;;
2020/01/16 13:21:59;;;;;;;6.3;3.3;;;;;;;10.37;64.60449;969.1675;;;;
2020/01/16 13:24:24;;;;;;;6.4;3.7;;;;;;;10.32;66.09473;969.175;;;;
2020/01/16 13:26:50;;;;;;;8.4;4.1;;;;;;;10.3;65.03223;969.17;;;;
2020/01/16 13:29:15;;;;;;;6;3.9;;;;;;;10.32;65.65625;969.1779;;;;
2020/01/16 13:31:40;;;;;;;8.5;4.2;;;;;;;10.46;64.53711;969.2188;;;;
2020/01/16 13:34:05;;;;;;;6.1;4;;;;;;;10.39;64.50488;969.2124;;;;
2020/01/16 13:36:30;;;;;;;6.6;4.4;;;;;;;10.37;64.34277;969.1489;;;;
2020/01/16 13:38:55;;;;;;;7.4;4.3;;;;;;;10.3;64.2959;969.1277;;;;
2020/01/16 13:41:21;;;;;;;9;4.1;;;;;;;10.4;64.0459;969.163;;;;
2020/01/16 13:43:46;;;;;;;7.1;4.2;;;;;;;10.4;64.24121;969.1473;;;;
2020/01/16 13:46:11;;;;;;;9.7;4.6;;;;;;;10.29;64.63965;969.1047;;;;
2020/01/16 13:48:37;;;;;;;7.3;4.7;;;;;;;10.3;64.56055;969.1252;;;;
2020/01/16 13:51:02;;;;;;;7.4;5;;;;;;;10.31;64.37793;969.1271;;;;
2020/01/16 13:53:27;;;;;;;10;4.9;;;;;;;10.26;64.43848;969.1461;;;;
2020/01/16 13:55:52;;;;;;;7.7;4.7;;;;;;;10.31;64.11328;969.1303;;;;
2020/01/16 13:58:17;;;;;;;7.6;4.7;;;;;;;10.26;63.94434;969.133;;;;
2020/01/16 14:00:42;;;;;;;8.6;5.2;;;;;;;10.28;64.56836;969.1797;;;;
2020/01/16 14:03:07;;;;;;;9;5.3;;;;;;;10.24;64.2998;969.0919;;;;
2020/01/16 14:05:33;;;;;;;7.8;5.4;;;;;;;10.22;64.51367;969.1513;;;;
2020/01/16 14:07:58;;;;;;;9.7;5;;;;;;;10.19;64.2334;969.0981;;;;
2020/01/16 14:10:23;;;;;;;12.4;5.5;;;;;;;10.18;64.02539;969.1061;;;;
2020/01/16 14:12:49;;;;;;;9.4;5.2;;;;;;;10.17;64.02246;969.0627;;;;
2020/01/16 14:15:15;;;;;;;8;5.2;;;;;;;10.23;64.38965;969.0339;;;;
2020/01/16 14:20:11;;;;;;;8.5;4.8;;;;;;;10.1;65.27832;969.0021;;;;
2020/01/16 14:22:35;;;;;;;5.7;4.1;;;;;;;10.15;65.44727;969.0383;;;;
2020/01/16 14:24:55;;;;;;;7.9;4.3;;;;;;;9.98;65.99609;969.0328;;;;
2020/01/16 14:27:20;;;;;;;6.2;3.4;;;;;;;10.09;64.94336;969.0042;;;;
2020/01/16 14:29:45;;;;;;;7.7;3.8;;;;;;;10.03;65.08301;969.0297;;;;
2020/01/16 14:32:11;;;;;;;5.8;3.1;;;;;;;9.97;65.21191;969.0626;;;;
2020/01/16 14:34:36;;;;;;;6.2;3.3;;;;;;;9.97;65.31543;969.0642;;;;
2020/01/16 14:37:01;;;;;;;8.3;3.6;;;;;;;9.95;65.4502;969.0764;;;;
2020/01/16 14:39:30;;;;;;;6.2;3.3;;;;;;;9.89;65.65918;969.0733;;;;
2020/01/16 14:41:55;;;;;;;5.4;3.3;;;;;;;9.78;65.74609;969.1347;;;;
2020/01/16 14:44:20;;;;;;;4.6;3.4;;;;;;;9.72;65.85156;969.1947;;;;
2020/01/16 14:46:46;;;;;;;4.9;3.4;;;;;;;9.75;65.70801;969.2003;;;;
2020/01/16 14:49:11;;;;;;;5.2;3.3;;;;;;;9.71;66.36719;969.2335;;;;
2020/01/16 14:51:36;;;;;;;6.2;3.4;;;;;;;9.74;65.75293;969.2606;;;;
2020/01/16 14:54:01;;;;;;;5.4;3.5;;;;;;;9.66;66.06055;969.2941;;;;
2020/01/16 14:56:26;;;;;;;7;3.4;;;;;;;9.61;66.15723;969.2802;;;;
2020/01/16 14:58:51;;;;;;;6.3;3.7;;;;;;;9.62;66.35352;969.2356;;;;